sensor_id;sensor_type;location;lat;lon;timestamp;P1;durP1;ratioP1;P2;durP2;ratioP2
75818;SDS011;64453;51.944;9.796;2023-08-07T00:01:39;0.70;;;0.60;;
75818;SDS011;64453;51.944;9.796;2023-08-07T00:04:07;0.70;;;0.70;;
75818;SDS011;64453;51.944;9.796;2023-08-07T00:06:34;0.80;;;0.80;;
75818;SDS011;64453;51.944;9.796;2023-08-07T00:09:01;1.00;;;1.00;;
75818;SDS011;64453;51.944;9.796;2023-08-07T00:11:29;0.80;;;0.80;;
75818;SDS011;64453;51.944;9.796;2023-08-07T00:13:57;1.03;;;0.93;;
75818;SDS011;64453;51.944;9.796;2023-08-07T00:16:24;1.63;;;1.20;;
75818;SDS011;64453;51.944;9.796;2023-08-07T00:18:51;1.83;;;1.50;;
75818;SDS011;64453;51.944;9.796;2023-08-07T00:21:22;1.87;;;1.77;;
75818;SDS011;64453;51.944;9.796;2023-08-07T00:23:49;2.40;;;2.20;;
75818;SDS011;64453;51.944;9.796;2023-08-07T00:26:16;2.30;;;2.10;;
75818;SDS011;64453;51.944;9.796;2023-08-07T00:28:43;2.27;;;2.13;;
75818;SDS011;64453;51.944;9.796;2023-08-07T00:31:10;2.73;;;2.63;;
75818;SDS011;64453;51.944;9.796;2023-08-07T00:33:37;2.93;;;2.63;;
75818;SDS011;64453;51.944;9.796;2023-08-07T00:36:04;2.63;;;2.43;;
75818;SDS011;64453;51.944;9.796;2023-08-07T00:38:32;4.50;;;2.60;;
75818;SDS011;64453;51.944;9.796;2023-08-07T00:40:59;3.00;;;2.70;;
75818;SDS011;64453;51.944;9.796;2023-08-07T00:43:26;4.30;;;2.90;;
75818;SDS011;64453;51.944;9.796;2023-08-07T00:45:53;2.57;;;2.13;;
75818;SDS011;64453;51.944;9.796;2023-08-07T00:48:20;1.70;;;1.60;;
75818;SDS011;64453;51.944;9.796;2023-08-07T00:50:48;1.40;;;1.30;;
75818;SDS011;64453;51.944;9.796;2023-08-07T00:53:17;3.50;;;1.90;;
75818;SDS011;64453;51.944;9.796;2023-08-07T00:55:45;5.27;;;2.10;;
75818;SDS011;64453;51.944;9.796;2023-08-07T00:58:13;5.73;;;2.40;;
75818;SDS011;64453;51.944;9.796;2023-08-07T01:00:40;3.00;;;2.60;;
75818;SDS011;64453;51.944;9.796;2023-08-07T01:03:07;2.90;;;2.70;;
75818;SDS011;64453;51.944;9.796;2023-08-07T01:05:34;6.77;;;3.40;;
75818;SDS011;64453;51.944;9.796;2023-08-07T01:08:01;3.10;;;2.60;;
75818;SDS011;64453;51.944;9.796;2023-08-07T01:10:31;2.73;;;2.53;;
75818;SDS011;64453;51.944;9.796;2023-08-07T01:13:12;3.23;;;2.93;;
75818;SDS011;64453;51.944;9.796;2023-08-07T01:15:46;5.93;;;3.10;;
75818;SDS011;64453;51.944;9.796;2023-08-07T01:18:16;3.83;;;3.53;;
75818;SDS011;64453;51.944;9.796;2023-08-07T01:20:43;5.43;;;3.10;;
75818;SDS011;64453;51.944;9.796;2023-08-07T01:23:12;3.40;;;3.10;;
75818;SDS011;64453;51.944;9.796;2023-08-07T01:25:39;5.23;;;3.20;;
75818;SDS011;64453;51.944;9.796;2023-08-07T01:28:08;2.87;;;2.50;;
75818;SDS011;64453;51.944;9.796;2023-08-07T01:30:44;3.07;;;2.77;;
75818;SDS011;64453;51.944;9.796;2023-08-07T01:33:16;6.90;;;3.53;;
75818;SDS011;64453;51.944;9.796;2023-08-07T01:35:51;9.90;;;3.57;;
75818;SDS011;64453;51.944;9.796;2023-08-07T01:38:22;4.83;;;2.70;;
75818;SDS011;64453;51.944;9.796;2023-08-07T01:40:52;3.20;;;2.80;;
75818;SDS011;64453;51.944;9.796;2023-08-07T01:43:20;3.13;;;2.93;;
75818;SDS011;64453;51.944;9.796;2023-08-07T01:45:47;2.50;;;2.40;;
75818;SDS011;64453;51.944;9.796;2023-08-07T01:48:14;4.57;;;3.47;;
75818;SDS011;64453;51.944;9.796;2023-08-07T01:50:41;4.20;;;2.90;;
75818;SDS011;64453;51.944;9.796;2023-08-07T01:53:08;2.50;;;2.30;;
75818;SDS011;64453;51.944;9.796;2023-08-07T01:55:36;4.73;;;2.80;;
75818;SDS011;64453;51.944;9.796;2023-08-07T01:58:03;3.27;;;2.83;;
75818;SDS011;64453;51.944;9.796;2023-08-07T02:00:30;2.83;;;2.63;;
75818;SDS011;64453;51.944;9.796;2023-08-07T02:02:57;3.17;;;2.50;;
75818;SDS011;64453;51.944;9.796;2023-08-07T02:05:24;2.33;;;2.23;;
75818;SDS011;64453;51.944;9.796;2023-08-07T02:07:51;3.00;;;2.20;;
75818;SDS011;64453;51.944;9.796;2023-08-07T02:10:18;3.50;;;2.47;;
75818;SDS011;64453;51.944;9.796;2023-08-07T02:12:46;3.03;;;2.57;;
75818;SDS011;64453;51.944;9.796;2023-08-07T02:15:14;5.20;;;2.60;;
75818;SDS011;64453;51.944;9.796;2023-08-07T02:17:41;2.50;;;1.90;;
75818;SDS011;64453;51.944;9.796;2023-08-07T02:20:09;5.20;;;2.77;;
75818;SDS011;64453;51.944;9.796;2023-08-07T02:22:37;2.60;;;1.90;;
75818;SDS011;64453;51.944;9.796;2023-08-07T02:25:04;2.40;;;2.20;;
75818;SDS011;64453;51.944;9.796;2023-08-07T02:27:32;4.90;;;1.83;;
75818;SDS011;64453;51.944;9.796;2023-08-07T02:30:00;3.00;;;2.10;;
75818;SDS011;64453;51.944;9.796;2023-08-07T02:32:28;2.30;;;2.00;;
75818;SDS011;64453;51.944;9.796;2023-08-07T02:34:55;3.07;;;2.10;;
75818;SDS011;64453;51.944;9.796;2023-08-07T02:37:22;2.77;;;2.57;;
75818;SDS011;64453;51.944;9.796;2023-08-07T02:39:49;2.50;;;2.30;;
75818;SDS011;64453;51.944;9.796;2023-08-07T02:42:16;2.40;;;2.17;;
75818;SDS011;64453;51.944;9.796;2023-08-07T02:44:43;4.93;;;2.60;;
75818;SDS011;64453;51.944;9.796;2023-08-07T02:47:11;5.03;;;2.60;;
75818;SDS011;64453;51.944;9.796;2023-08-07T02:49:38;2.33;;;2.13;;
75818;SDS011;64453;51.944;9.796;2023-08-07T02:52:05;9.10;;;4.70;;
75818;SDS011;64453;51.944;9.796;2023-08-07T02:54:33;3.13;;;2.30;;
75818;SDS011;64453;51.944;9.796;2023-08-07T02:57:00;3.43;;;2.57;;
75818;SDS011;64453;51.944;9.796;2023-08-07T02:59:27;6.53;;;2.40;;
75818;SDS011;64453;51.944;9.796;2023-08-07T03:01:54;2.77;;;2.50;;
75818;SDS011;64453;51.944;9.796;2023-08-07T03:04:23;3.97;;;3.30;;
75818;SDS011;64453;51.944;9.796;2023-08-07T03:06:50;4.17;;;2.70;;
75818;SDS011;64453;51.944;9.796;2023-08-07T03:09:17;2.67;;;2.50;;
75818;SDS011;64453;51.944;9.796;2023-08-07T03:11:44;5.00;;;2.80;;
75818;SDS011;64453;51.944;9.796;2023-08-07T03:14:11;4.43;;;2.73;;
75818;SDS011;64453;51.944;9.796;2023-08-07T03:16:38;4.10;;;2.37;;
75818;SDS011;64453;51.944;9.796;2023-08-07T03:19:05;3.40;;;2.40;;
75818;SDS011;64453;51.944;9.796;2023-08-07T03:21:33;8.33;;;2.57;;
75818;SDS011;64453;51.944;9.796;2023-08-07T03:24:00;6.13;;;2.30;;
75818;SDS011;64453;51.944;9.796;2023-08-07T03:26:27;2.40;;;2.20;;
75818;SDS011;64453;51.944;9.796;2023-08-07T03:28:54;4.30;;;2.10;;
75818;SDS011;64453;51.944;9.796;2023-08-07T03:31:21;2.70;;;2.10;;
75818;SDS011;64453;51.944;9.796;2023-08-07T03:33:48;6.37;;;2.30;;
75818;SDS011;64453;51.944;9.796;2023-08-07T03:36:15;4.23;;;2.97;;
75818;SDS011;64453;51.944;9.796;2023-08-07T03:38:43;2.53;;;2.33;;
75818;SDS011;64453;51.944;9.796;2023-08-07T03:41:10;2.23;;;2.13;;
75818;SDS011;64453;51.944;9.796;2023-08-07T03:43:38;3.50;;;2.10;;
75818;SDS011;64453;51.944;9.796;2023-08-07T03:46:05;3.47;;;2.30;;
75818;SDS011;64453;51.944;9.796;2023-08-07T03:48:32;2.40;;;2.30;;
75818;SDS011;64453;51.944;9.796;2023-08-07T03:51:02;3.77;;;2.37;;
75818;SDS011;64453;51.944;9.796;2023-08-07T03:53:30;3.33;;;2.23;;
75818;SDS011;64453;51.944;9.796;2023-08-07T03:55:58;2.33;;;2.20;;
75818;SDS011;64453;51.944;9.796;2023-08-07T03:58:25;3.40;;;2.30;;
75818;SDS011;64453;51.944;9.796;2023-08-07T04:00:52;2.50;;;2.17;;
75818;SDS011;64453;51.944;9.796;2023-08-07T04:03:19;2.40;;;2.23;;
75818;SDS011;64453;51.944;9.796;2023-08-07T04:05:47;3.73;;;1.90;;
75818;SDS011;64453;51.944;9.796;2023-08-07T04:08:18;3.53;;;2.23;;
75818;SDS011;64453;51.944;9.796;2023-08-07T04:10:44;3.07;;;2.03;;
75818;SDS011;64453;51.944;9.796;2023-08-07T04:13:25;5.00;;;1.97;;
75818;SDS011;64453;51.944;9.796;2023-08-07T04:15:52;2.60;;;2.40;;
75818;SDS011;64453;51.944;9.796;2023-08-07T04:18:19;5.60;;;2.03;;
75818;SDS011;64453;51.944;9.796;2023-08-07T04:20:48;5.23;;;2.00;;
75818;SDS011;64453;51.944;9.796;2023-08-07T04:23:16;1.70;;;1.47;;
75818;SDS011;64453;51.944;9.796;2023-08-07T04:25:43;3.73;;;1.97;;
75818;SDS011;64453;51.944;9.796;2023-08-07T04:28:11;2.10;;;2.00;;
75818;SDS011;64453;51.944;9.796;2023-08-07T04:30:40;2.50;;;1.67;;
75818;SDS011;64453;51.944;9.796;2023-08-07T04:33:07;5.50;;;1.90;;
75818;SDS011;64453;51.944;9.796;2023-08-07T04:35:34;1.97;;;1.87;;
75818;SDS011;64453;51.944;9.796;2023-08-07T04:38:02;3.80;;;2.30;;
75818;SDS011;64453;51.944;9.796;2023-08-07T04:40:29;3.07;;;2.03;;
75818;SDS011;64453;51.944;9.796;2023-08-07T04:42:56;5.43;;;2.13;;
75818;SDS011;64453;51.944;9.796;2023-08-07T04:45:23;2.77;;;2.10;;
75818;SDS011;64453;51.944;9.796;2023-08-07T04:47:51;4.20;;;2.23;;
75818;SDS011;64453;51.944;9.796;2023-08-07T04:50:18;2.70;;;2.30;;
75818;SDS011;64453;51.944;9.796;2023-08-07T04:52:45;3.10;;;2.30;;
75818;SDS011;64453;51.944;9.796;2023-08-07T04:55:12;3.63;;;2.00;;
75818;SDS011;64453;51.944;9.796;2023-08-07T04:57:39;3.40;;;2.27;;
75818;SDS011;64453;51.944;9.796;2023-08-07T05:00:06;3.93;;;2.50;;
75818;SDS011;64453;51.944;9.796;2023-08-07T05:02:34;5.80;;;2.80;;
75818;SDS011;64453;51.944;9.796;2023-08-07T05:05:03;2.10;;;2.00;;
75818;SDS011;64453;51.944;9.796;2023-08-07T05:07:32;3.77;;;2.30;;
75818;SDS011;64453;51.944;9.796;2023-08-07T05:10:01;3.30;;;2.50;;
75818;SDS011;64453;51.944;9.796;2023-08-07T05:12:28;2.10;;;1.87;;
75818;SDS011;64453;51.944;9.796;2023-08-07T05:14:55;3.50;;;2.40;;
75818;SDS011;64453;51.944;9.796;2023-08-07T05:17:22;1.97;;;1.77;;
75818;SDS011;64453;51.944;9.796;2023-08-07T05:19:49;2.43;;;2.23;;
75818;SDS011;64453;51.944;9.796;2023-08-07T05:22:17;3.13;;;2.50;;
75818;SDS011;64453;51.944;9.796;2023-08-07T05:24:44;4.90;;;2.40;;
75818;SDS011;64453;51.944;9.796;2023-08-07T05:27:11;3.67;;;2.00;;
75818;SDS011;64453;51.944;9.796;2023-08-07T05:29:38;2.07;;;1.97;;
75818;SDS011;64453;51.944;9.796;2023-08-07T05:32:09;2.40;;;1.90;;
75818;SDS011;64453;51.944;9.796;2023-08-07T05:34:36;3.27;;;2.07;;
75818;SDS011;64453;51.944;9.796;2023-08-07T05:37:04;1.70;;;1.60;;
75818;SDS011;64453;51.944;9.796;2023-08-07T05:39:32;4.53;;;1.77;;
75818;SDS011;64453;51.944;9.796;2023-08-07T05:42:00;1.90;;;1.80;;
75818;SDS011;64453;51.944;9.796;2023-08-07T05:44:28;1.70;;;1.53;;
75818;SDS011;64453;51.944;9.796;2023-08-07T05:46:55;2.10;;;1.70;;
75818;SDS011;64453;51.944;9.796;2023-08-07T05:49:22;3.80;;;1.37;;
75818;SDS011;64453;51.944;9.796;2023-08-07T05:51:49;3.80;;;2.63;;
75818;SDS011;64453;51.944;9.796;2023-08-07T05:54:16;4.50;;;1.73;;
75818;SDS011;64453;51.944;9.796;2023-08-07T05:56:44;2.97;;;1.90;;
75818;SDS011;64453;51.944;9.796;2023-08-07T05:59:11;1.70;;;1.60;;
75818;SDS011;64453;51.944;9.796;2023-08-07T06:01:38;2.30;;;1.73;;
75818;SDS011;64453;51.944;9.796;2023-08-07T06:04:06;2.73;;;2.00;;
75818;SDS011;64453;51.944;9.796;2023-08-07T06:06:34;2.47;;;2.27;;
75818;SDS011;64453;51.944;9.796;2023-08-07T06:09:01;1.70;;;1.50;;
75818;SDS011;64453;51.944;9.796;2023-08-07T06:11:28;1.70;;;1.60;;
75818;SDS011;64453;51.944;9.796;2023-08-07T06:13:57;1.80;;;1.70;;
75818;SDS011;64453;51.944;9.796;2023-08-07T06:16:24;2.20;;;2.10;;
75818;SDS011;64453;51.944;9.796;2023-08-07T06:18:52;3.07;;;2.60;;
75818;SDS011;64453;51.944;9.796;2023-08-07T06:21:19;2.00;;;1.90;;
75818;SDS011;64453;51.944;9.796;2023-08-07T06:23:46;3.30;;;2.73;;
75818;SDS011;64453;51.944;9.796;2023-08-07T06:26:13;2.60;;;2.40;;
75818;SDS011;64453;51.944;9.796;2023-08-07T06:28:41;3.13;;;2.70;;
75818;SDS011;64453;51.944;9.796;2023-08-07T06:31:10;3.07;;;2.57;;
75818;SDS011;64453;51.944;9.796;2023-08-07T06:33:38;3.07;;;2.67;;
75818;SDS011;64453;51.944;9.796;2023-08-07T06:36:06;2.40;;;2.30;;
75818;SDS011;64453;51.944;9.796;2023-08-07T06:38:34;2.97;;;2.27;;
75818;SDS011;64453;51.944;9.796;2023-08-07T06:41:01;2.53;;;2.43;;
75818;SDS011;64453;51.944;9.796;2023-08-07T06:43:29;2.83;;;2.53;;
75818;SDS011;64453;51.944;9.796;2023-08-07T06:45:56;2.57;;;2.10;;
75818;SDS011;64453;51.944;9.796;2023-08-07T06:48:26;2.40;;;2.27;;
75818;SDS011;64453;51.944;9.796;2023-08-07T06:50:53;2.13;;;2.03;;
75818;SDS011;64453;51.944;9.796;2023-08-07T06:53:20;4.90;;;3.30;;
75818;SDS011;64453;51.944;9.796;2023-08-07T06:55:47;3.70;;;3.30;;
75818;SDS011;64453;51.944;9.796;2023-08-07T06:58:14;2.50;;;2.30;;
75818;SDS011;64453;51.944;9.796;2023-08-07T07:00:41;3.43;;;2.60;;
75818;SDS011;64453;51.944;9.796;2023-08-07T07:03:08;4.53;;;2.30;;
75818;SDS011;64453;51.944;9.796;2023-08-07T07:05:36;4.00;;;3.57;;
75818;SDS011;64453;51.944;9.796;2023-08-07T07:08:04;3.63;;;2.37;;
75818;SDS011;64453;51.944;9.796;2023-08-07T07:10:31;3.77;;;2.37;;
75818;SDS011;64453;51.944;9.796;2023-08-07T07:12:58;4.30;;;2.43;;
75818;SDS011;64453;51.944;9.796;2023-08-07T07:15:25;3.40;;;2.30;;
75818;SDS011;64453;51.944;9.796;2023-08-07T07:17:52;2.23;;;2.07;;
75818;SDS011;64453;51.944;9.796;2023-08-07T07:20:19;2.33;;;2.13;;
75818;SDS011;64453;51.944;9.796;2023-08-07T07:22:48;2.23;;;2.00;;
75818;SDS011;64453;51.944;9.796;2023-08-07T07:25:15;2.50;;;2.00;;
75818;SDS011;64453;51.944;9.796;2023-08-07T07:27:42;2.73;;;2.30;;
75818;SDS011;64453;51.944;9.796;2023-08-07T07:30:09;3.10;;;2.90;;
75818;SDS011;64453;51.944;9.796;2023-08-07T07:32:37;2.97;;;2.40;;
75818;SDS011;64453;51.944;9.796;2023-08-07T07:35:04;3.10;;;2.10;;
75818;SDS011;64453;51.944;9.796;2023-08-07T07:37:32;2.60;;;1.90;;
75818;SDS011;64453;51.944;9.796;2023-08-07T07:40:01;1.70;;;1.70;;
75818;SDS011;64453;51.944;9.796;2023-08-07T07:42:28;3.83;;;2.07;;
75818;SDS011;64453;51.944;9.796;2023-08-07T07:44:56;1.33;;;1.33;;
75818;SDS011;64453;51.944;9.796;2023-08-07T07:47:23;2.00;;;1.80;;
75818;SDS011;64453;51.944;9.796;2023-08-07T07:50:03;1.93;;;1.60;;
75818;SDS011;64453;51.944;9.796;2023-08-07T07:52:32;1.77;;;1.20;;
75818;SDS011;64453;51.944;9.796;2023-08-07T07:54:59;1.37;;;1.27;;
75818;SDS011;64453;51.944;9.796;2023-08-07T07:57:27;1.33;;;1.23;;
75818;SDS011;64453;51.944;9.796;2023-08-07T07:59:54;1.70;;;1.60;;
75818;SDS011;64453;51.944;9.796;2023-08-07T08:02:21;6.07;;;1.93;;
75818;SDS011;64453;51.944;9.796;2023-08-07T08:04:49;1.57;;;1.43;;
75818;SDS011;64453;51.944;9.796;2023-08-07T08:07:17;3.07;;;1.53;;
75818;SDS011;64453;51.944;9.796;2023-08-07T08:09:44;1.80;;;1.50;;
75818;SDS011;64453;51.944;9.796;2023-08-07T08:12:12;2.80;;;1.80;;
75818;SDS011;64453;51.944;9.796;2023-08-07T08:14:40;1.60;;;1.50;;
75818;SDS011;64453;51.944;9.796;2023-08-07T08:17:07;3.13;;;1.50;;
75818;SDS011;64453;51.944;9.796;2023-08-07T08:19:35;1.93;;;1.67;;
75818;SDS011;64453;51.944;9.796;2023-08-07T08:22:02;1.83;;;1.43;;
75818;SDS011;64453;51.944;9.796;2023-08-07T08:24:29;1.80;;;1.70;;
75818;SDS011;64453;51.944;9.796;2023-08-07T08:26:56;3.43;;;2.17;;
75818;SDS011;64453;51.944;9.796;2023-08-07T08:29:23;3.37;;;1.63;;
75818;SDS011;64453;51.944;9.796;2023-08-07T08:31:54;2.00;;;1.37;;
75818;SDS011;64453;51.944;9.796;2023-08-07T08:34:21;3.53;;;2.13;;
75818;SDS011;64453;51.944;9.796;2023-08-07T08:36:48;2.67;;;1.20;;
75818;SDS011;64453;51.944;9.796;2023-08-07T08:39:15;2.20;;;1.43;;
75818;SDS011;64453;51.944;9.796;2023-08-07T08:41:42;9.33;;;1.87;;
75818;SDS011;64453;51.944;9.796;2023-08-07T08:44:13;6.30;;;1.57;;
75818;SDS011;64453;51.944;9.796;2023-08-07T08:46:41;1.50;;;1.40;;
75818;SDS011;64453;51.944;9.796;2023-08-07T08:49:10;3.40;;;1.60;;
75818;SDS011;64453;51.944;9.796;2023-08-07T08:51:39;2.07;;;1.87;;
75818;SDS011;64453;51.944;9.796;2023-08-07T08:54:07;3.50;;;1.23;;
75818;SDS011;64453;51.944;9.796;2023-08-07T08:56:34;2.23;;;1.50;;
75818;SDS011;64453;51.944;9.796;2023-08-07T08:59:02;1.90;;;1.40;;
75818;SDS011;64453;51.944;9.796;2023-08-07T09:01:29;2.00;;;1.30;;
75818;SDS011;64453;51.944;9.796;2023-08-07T09:03:57;1.90;;;1.07;;
75818;SDS011;64453;51.944;9.796;2023-08-07T09:06:26;1.30;;;1.20;;
75818;SDS011;64453;51.944;9.796;2023-08-07T09:08:57;4.43;;;1.67;;
75818;SDS011;64453;51.944;9.796;2023-08-07T09:11:25;9.70;;;2.10;;
75818;SDS011;64453;51.944;9.796;2023-08-07T09:13:54;1.83;;;1.60;;
75818;SDS011;64453;51.944;9.796;2023-08-07T09:16:22;2.83;;;1.07;;
75818;SDS011;64453;51.944;9.796;2023-08-07T09:18:50;3.40;;;1.50;;
75818;SDS011;64453;51.944;9.796;2023-08-07T09:21:20;1.67;;;1.37;;
75818;SDS011;64453;51.944;9.796;2023-08-07T09:23:48;3.53;;;1.30;;
75818;SDS011;64453;51.944;9.796;2023-08-07T09:26:16;2.90;;;1.47;;
75818;SDS011;64453;51.944;9.796;2023-08-07T09:28:50;1.97;;;1.40;;
75818;SDS011;64453;51.944;9.796;2023-08-07T09:31:19;2.77;;;1.07;;
75818;SDS011;64453;51.944;9.796;2023-08-07T09:33:46;1.40;;;1.30;;
75818;SDS011;64453;51.944;9.796;2023-08-07T09:36:14;2.20;;;1.30;;
75818;SDS011;64453;51.944;9.796;2023-08-07T09:38:42;1.13;;;1.13;;
75818;SDS011;64453;51.944;9.796;2023-08-07T09:41:10;1.77;;;1.20;;
75818;SDS011;64453;51.944;9.796;2023-08-07T09:43:37;1.33;;;1.03;;
75818;SDS011;64453;51.944;9.796;2023-08-07T09:46:05;2.20;;;1.17;;
75818;SDS011;64453;51.944;9.796;2023-08-07T09:48:38;2.70;;;1.37;;
75818;SDS011;64453;51.944;9.796;2023-08-07T09:51:07;2.77;;;0.90;;
75818;SDS011;64453;51.944;9.796;2023-08-07T09:53:34;0.73;;;0.73;;
75818;SDS011;64453;51.944;9.796;2023-08-07T09:56:01;2.20;;;1.00;;
75818;SDS011;64453;51.944;9.796;2023-08-07T09:58:30;0.80;;;0.70;;
75818;SDS011;64453;51.944;9.796;2023-08-07T10:00:58;2.20;;;1.03;;
75818;SDS011;64453;51.944;9.796;2023-08-07T10:03:26;2.07;;;0.97;;
75818;SDS011;64453;51.944;9.796;2023-08-07T10:05:54;1.10;;;1.00;;
75818;SDS011;64453;51.944;9.796;2023-08-07T10:08:21;1.50;;;0.83;;
75818;SDS011;64453;51.944;9.796;2023-08-07T10:10:49;1.27;;;1.20;;
75818;SDS011;64453;51.944;9.796;2023-08-07T10:13:16;3.37;;;1.17;;
75818;SDS011;64453;51.944;9.796;2023-08-07T10:15:45;2.93;;;1.33;;
75818;SDS011;64453;51.944;9.796;2023-08-07T10:18:13;5.47;;;1.30;;
75818;SDS011;64453;51.944;9.796;2023-08-07T10:20:40;1.90;;;1.53;;
75818;SDS011;64453;51.944;9.796;2023-08-07T10:23:09;2.60;;;1.20;;
75818;SDS011;64453;51.944;9.796;2023-08-07T10:25:39;2.10;;;1.00;;
75818;SDS011;64453;51.944;9.796;2023-08-07T10:28:12;5.77;;;1.90;;
75818;SDS011;64453;51.944;9.796;2023-08-07T10:30:43;3.57;;;1.53;;
75818;SDS011;64453;51.944;9.796;2023-08-07T10:33:13;2.50;;;1.30;;
75818;SDS011;64453;51.944;9.796;2023-08-07T10:35:44;5.77;;;1.60;;
75818;SDS011;64453;51.944;9.796;2023-08-07T10:38:13;2.60;;;1.30;;
75818;SDS011;64453;51.944;9.796;2023-08-07T10:40:59;2.97;;;1.50;;
75818;SDS011;64453;51.944;9.796;2023-08-07T10:43:28;6.53;;;1.63;;
75818;SDS011;64453;51.944;9.796;2023-08-07T10:46:04;2.20;;;1.20;;
75818;SDS011;64453;51.944;9.796;2023-08-07T10:48:37;2.20;;;1.30;;
75818;SDS011;64453;51.944;9.796;2023-08-07T10:51:05;3.07;;;1.37;;
75818;SDS011;64453;51.944;9.796;2023-08-07T10:53:35;3.80;;;1.50;;
75818;SDS011;64453;51.944;9.796;2023-08-07T10:56:05;5.83;;;1.73;;
75818;SDS011;64453;51.944;9.796;2023-08-07T10:58:35;2.93;;;1.30;;
75818;SDS011;64453;51.944;9.796;2023-08-07T11:01:20;1.87;;;1.40;;
75818;SDS011;64453;51.944;9.796;2023-08-07T11:03:51;3.47;;;1.40;;
75818;SDS011;64453;51.944;9.796;2023-08-07T11:06:24;6.40;;;1.23;;
75818;SDS011;64453;51.944;9.796;2023-08-07T11:08:54;3.00;;;1.20;;
75818;SDS011;64453;51.944;9.796;2023-08-07T11:11:20;1.53;;;1.00;;
75818;SDS011;64453;51.944;9.796;2023-08-07T11:13:48;3.53;;;1.10;;
75818;SDS011;64453;51.944;9.796;2023-08-07T11:16:15;5.43;;;1.67;;
75818;SDS011;64453;51.944;9.796;2023-08-07T11:18:44;2.33;;;1.00;;
75818;SDS011;64453;51.944;9.796;2023-08-07T11:21:11;5.43;;;1.60;;
75818;SDS011;64453;51.944;9.796;2023-08-07T11:23:39;3.63;;;1.53;;
75818;SDS011;64453;51.944;9.796;2023-08-07T11:26:09;2.20;;;1.30;;
75818;SDS011;64453;51.944;9.796;2023-08-07T11:28:37;1.40;;;1.30;;
75818;SDS011;64453;51.944;9.796;2023-08-07T11:31:04;3.00;;;1.47;;
75818;SDS011;64453;51.944;9.796;2023-08-07T11:33:31;2.20;;;1.10;;
75818;SDS011;64453;51.944;9.796;2023-08-07T11:35:59;3.80;;;1.30;;
75818;SDS011;64453;51.944;9.796;2023-08-07T11:38:30;0.80;;;0.80;;
75818;SDS011;64453;51.944;9.796;2023-08-07T11:40:59;2.97;;;1.10;;
75818;SDS011;64453;51.944;9.796;2023-08-07T11:43:27;2.77;;;0.73;;
75818;SDS011;64453;51.944;9.796;2023-08-07T11:45:56;1.40;;;0.80;;
75818;SDS011;64453;51.944;9.796;2023-08-07T11:48:24;5.60;;;1.30;;
75818;SDS011;64453;51.944;9.796;2023-08-07T11:50:52;3.33;;;0.80;;
75818;SDS011;64453;51.944;9.796;2023-08-07T11:53:21;1.80;;;0.90;;
75818;SDS011;64453;51.944;9.796;2023-08-07T11:55:52;6.00;;;1.27;;
75818;SDS011;64453;51.944;9.796;2023-08-07T11:58:22;3.43;;;1.10;;
75818;SDS011;64453;51.944;9.796;2023-08-07T12:00:52;1.93;;;1.07;;
75818;SDS011;64453;51.944;9.796;2023-08-07T12:03:23;0.93;;;0.90;;
75818;SDS011;64453;51.944;9.796;2023-08-07T12:05:52;0.93;;;0.77;;
75818;SDS011;64453;51.944;9.796;2023-08-07T12:08:22;3.50;;;1.00;;
75818;SDS011;64453;51.944;9.796;2023-08-07T12:10:50;3.50;;;1.13;;
75818;SDS011;64453;51.944;9.796;2023-08-07T12:13:19;5.83;;;1.13;;
75818;SDS011;64453;51.944;9.796;2023-08-07T12:15:53;2.10;;;1.00;;
75818;SDS011;64453;51.944;9.796;2023-08-07T12:18:21;1.90;;;1.23;;
75818;SDS011;64453;51.944;9.796;2023-08-07T12:20:49;6.40;;;1.83;;
75818;SDS011;64453;51.944;9.796;2023-08-07T12:23:17;3.47;;;1.10;;
75818;SDS011;64453;51.944;9.796;2023-08-07T12:25:48;10.90;;;1.63;;
75818;SDS011;64453;51.944;9.796;2023-08-07T12:28:15;2.13;;;1.20;;
75818;SDS011;64453;51.944;9.796;2023-08-07T12:30:44;2.10;;;0.80;;
75818;SDS011;64453;51.944;9.796;2023-08-07T12:33:11;1.80;;;1.10;;
75818;SDS011;64453;51.944;9.796;2023-08-07T12:35:39;2.40;;;1.13;;
75818;SDS011;64453;51.944;9.796;2023-08-07T12:38:06;1.53;;;1.10;;
75818;SDS011;64453;51.944;9.796;2023-08-07T12:40:34;3.63;;;1.00;;
75818;SDS011;64453;51.944;9.796;2023-08-07T12:43:03;1.53;;;1.17;;
75818;SDS011;64453;51.944;9.796;2023-08-07T12:45:31;1.80;;;0.90;;
75818;SDS011;64453;51.944;9.796;2023-08-07T12:47:58;0.90;;;0.73;;
75818;SDS011;64453;51.944;9.796;2023-08-07T12:50:27;1.80;;;1.00;;
75818;SDS011;64453;51.944;9.796;2023-08-07T12:52:55;2.73;;;0.90;;
75818;SDS011;64453;51.944;9.796;2023-08-07T12:55:23;2.30;;;0.83;;
75818;SDS011;64453;51.944;9.796;2023-08-07T12:57:51;1.73;;;1.00;;
75818;SDS011;64453;51.944;9.796;2023-08-07T13:00:20;3.70;;;1.20;;
75818;SDS011;64453;51.944;9.796;2023-08-07T13:02:49;0.87;;;0.87;;
75818;SDS011;64453;51.944;9.796;2023-08-07T13:05:17;2.30;;;1.03;;
75818;SDS011;64453;51.944;9.796;2023-08-07T13:07:47;4.07;;;1.20;;
75818;SDS011;64453;51.944;9.796;2023-08-07T13:10:14;4.97;;;1.50;;
75818;SDS011;64453;51.944;9.796;2023-08-07T13:12:43;3.43;;;1.30;;
75818;SDS011;64453;51.944;9.796;2023-08-07T13:15:14;7.47;;;1.47;;
75818;SDS011;64453;51.944;9.796;2023-08-07T13:17:43;5.63;;;1.47;;
75818;SDS011;64453;51.944;9.796;2023-08-07T13:20:11;3.70;;;1.50;;
75818;SDS011;64453;51.944;9.796;2023-08-07T13:22:39;4.20;;;1.67;;
75818;SDS011;64453;51.944;9.796;2023-08-07T13:25:08;4.87;;;2.00;;
75818;SDS011;64453;51.944;9.796;2023-08-07T13:27:36;6.30;;;1.80;;
75818;SDS011;64453;51.944;9.796;2023-08-07T13:30:04;1.87;;;1.50;;
75818;SDS011;64453;51.944;9.796;2023-08-07T13:32:33;5.23;;;1.80;;
75818;SDS011;64453;51.944;9.796;2023-08-07T13:35:01;4.90;;;1.17;;
75818;SDS011;64453;51.944;9.796;2023-08-07T13:37:28;4.93;;;1.53;;
75818;SDS011;64453;51.944;9.796;2023-08-07T13:39:56;4.13;;;1.50;;
75818;SDS011;64453;51.944;9.796;2023-08-07T13:42:23;5.97;;;1.90;;
75818;SDS011;64453;51.944;9.796;2023-08-07T13:44:52;4.20;;;1.73;;
75818;SDS011;64453;51.944;9.796;2023-08-07T13:47:20;2.13;;;1.40;;
75818;SDS011;64453;51.944;9.796;2023-08-07T13:49:47;3.57;;;1.47;;
75818;SDS011;64453;51.944;9.796;2023-08-07T13:52:15;3.63;;;1.40;;
75818;SDS011;64453;51.944;9.796;2023-08-07T13:54:42;4.67;;;1.87;;
75818;SDS011;64453;51.944;9.796;2023-08-07T13:57:09;11.30;;;2.00;;
75818;SDS011;64453;51.944;9.796;2023-08-07T13:59:36;6.10;;;2.10;;
75818;SDS011;64453;51.944;9.796;2023-08-07T14:02:03;3.77;;;1.47;;
75818;SDS011;64453;51.944;9.796;2023-08-07T14:04:31;2.70;;;1.87;;
75818;SDS011;64453;51.944;9.796;2023-08-07T14:06:58;4.10;;;1.67;;
75818;SDS011;64453;51.944;9.796;2023-08-07T14:09:27;3.67;;;1.57;;
75818;SDS011;64453;51.944;9.796;2023-08-07T14:11:54;5.87;;;1.70;;
75818;SDS011;64453;51.944;9.796;2023-08-07T14:14:22;5.30;;;1.47;;
75818;SDS011;64453;51.944;9.796;2023-08-07T14:16:49;2.10;;;1.47;;
75818;SDS011;64453;51.944;9.796;2023-08-07T14:19:16;3.63;;;1.80;;
75818;SDS011;64453;51.944;9.796;2023-08-07T14:21:43;2.90;;;1.90;;
75818;SDS011;64453;51.944;9.796;2023-08-07T14:24:10;2.10;;;1.70;;
75818;SDS011;64453;51.944;9.796;2023-08-07T14:26:38;4.10;;;1.87;;
75818;SDS011;64453;51.944;9.796;2023-08-07T14:29:05;5.93;;;1.80;;
75818;SDS011;64453;51.944;9.796;2023-08-07T14:31:32;2.67;;;1.50;;
75818;SDS011;64453;51.944;9.796;2023-08-07T14:33:59;8.20;;;1.73;;
75818;SDS011;64453;51.944;9.796;2023-08-07T14:36:26;6.87;;;1.57;;
75818;SDS011;64453;51.944;9.796;2023-08-07T14:38:53;2.87;;;1.33;;
75818;SDS011;64453;51.944;9.796;2023-08-07T14:41:20;3.00;;;1.83;;
75818;SDS011;64453;51.944;9.796;2023-08-07T14:43:48;4.17;;;1.70;;
75818;SDS011;64453;51.944;9.796;2023-08-07T14:46:16;3.67;;;1.57;;
75818;SDS011;64453;51.944;9.796;2023-08-07T14:48:43;6.77;;;1.40;;
75818;SDS011;64453;51.944;9.796;2023-08-07T14:51:11;3.53;;;1.60;;
75818;SDS011;64453;51.944;9.796;2023-08-07T14:53:39;4.07;;;1.63;;